createdAt,value
2023-05-04T00:02:06.749Z,11.52
2023-05-04T00:04:53.148Z,11.57
2023-05-04T00:07:38.523Z,11.64
2023-05-04T00:10:22.617Z,11.79
2023-05-04T00:13:06.928Z,11.67
2023-05-04T00:15:50.978Z,11.68
2023-05-04T00:18:34.858Z,11.66
2023-05-04T00:21:18.608Z,11.17
2023-05-04T00:24:03.866Z,10.92
2023-05-04T00:26:47.627Z,11.45
2023-05-04T00:29:31.734Z,11.21
2023-05-04T00:32:15.568Z,11.12
2023-05-04T00:35:00.773Z,11.19
2023-05-04T00:37:46.085Z,10.82
2023-05-04T00:40:31.509Z,10.78
2023-05-04T00:43:15.306Z,10.86
2023-05-04T00:45:59.171Z,11.24
2023-05-04T00:48:43.972Z,11.19
2023-05-04T00:51:30.092Z,10.73
2023-05-04T00:54:15.676Z,11.22
2023-05-04T00:57:02.203Z,11.36
2023-05-04T00:59:47.859Z,11.45
2023-05-04T01:02:31.827Z,11.73
2023-05-04T01:05:15.728Z,11.67
2023-05-04T01:08:05.433Z,11.96
2023-05-04T01:10:55.771Z,12.05
2023-05-04T01:13:41.900Z,12.00
2023-05-04T01:16:25.805Z,12.32
2023-05-04T01:19:09.708Z,12.21
2023-05-04T01:21:54.970Z,12.29
2023-05-04T01:24:39.261Z,12.26
2023-05-04T01:27:27.634Z,12.40
2023-05-04T01:30:20.239Z,12.60
2023-05-04T01:33:05.741Z,12.76
2023-05-04T01:35:50.915Z,12.50
2023-05-04T01:38:36.148Z,12.55
2023-05-04T01:41:19.997Z,12.18
2023-05-04T01:44:04.316Z,12.18
2023-05-04T01:46:48.260Z,12.46
2023-05-04T01:49:32.573Z,12.56
2023-05-04T01:52:16.419Z,12.69
2023-05-04T01:55:02.747Z,12.59
2023-05-04T01:57:46.730Z,12.17
2023-05-04T02:00:30.824Z,12.06
2023-05-04T02:03:17.763Z,11.88
2023-05-04T02:06:01.722Z,12.12
2023-05-04T02:08:46.325Z,12.10
2023-05-04T02:11:31.728Z,12.05
2023-05-04T02:14:15.352Z,12.19
2023-05-04T02:16:59.288Z,12.25
2023-05-04T02:19:43.104Z,12.25
2023-05-04T02:22:27.101Z,12.54
2023-05-04T02:25:11.478Z,12.65
2023-05-04T02:27:56.965Z,12.22
2023-05-04T02:30:42.542Z,12.40
2023-05-04T02:33:26.447Z,12.60
2023-05-04T02:36:10.704Z,12.68
2023-05-04T02:38:56.110Z,12.74
2023-05-04T02:41:40.007Z,12.63
2023-05-04T02:44:25.316Z,12.69
2023-05-04T02:47:09.654Z,12.77
2023-05-04T02:49:53.551Z,12.89
2023-05-04T02:52:37.372Z,12.97
2023-05-04T02:55:21.293Z,12.74
2023-05-04T02:58:05.023Z,12.69
2023-05-04T03:00:55.483Z,12.60
2023-05-04T03:03:39.292Z,12.85
2023-05-04T03:06:23.173Z,12.66
2023-05-04T03:09:07.103Z,12.23
2023-05-04T03:11:51.038Z,12.27
2023-05-04T03:14:35.007Z,12.57
2023-05-04T03:17:20.258Z,12.76
2023-05-04T03:20:04.605Z,12.73
2023-05-04T03:22:50.126Z,12.77
2023-05-04T03:25:34.520Z,12.85
2023-05-04T03:28:18.961Z,12.84
2023-05-04T03:31:03.312Z,12.99
2023-05-04T03:33:48.653Z,13.02
2023-05-04T03:36:32.831Z,12.74
2023-05-04T03:39:17.178Z,12.74
2023-05-04T03:42:02.777Z,12.61
2023-05-04T03:44:46.649Z,12.45
2023-05-04T03:47:30.575Z,12.39
2023-05-04T03:50:16.180Z,12.50
2023-05-04T03:53:00.079Z,12.58
2023-05-04T03:55:45.290Z,12.78
2023-05-04T03:58:29.247Z,12.90
2023-05-04T04:01:16.172Z,12.93
2023-05-04T04:04:01.164Z,13.12
2023-05-04T04:06:46.630Z,13.31
2023-05-04T04:09:30.611Z,13.15
2023-05-04T04:12:16.201Z,13.13
2023-05-04T04:15:00.143Z,13.21
2023-05-04T04:17:44.215Z,13.20
2023-05-04T04:20:27.981Z,13.06
2023-05-04T04:23:13.357Z,13.29
2023-05-04T04:25:57.324Z,13.36
2023-05-04T04:28:41.465Z,13.08
2023-05-04T04:31:25.390Z,12.55
2023-05-04T04:34:09.370Z,12.38
2023-05-04T04:36:53.232Z,12.60
2023-05-04T04:39:38.514Z,12.56
2023-05-04T04:42:22.502Z,12.58
2023-05-04T04:45:07.662Z,12.36
2023-05-04T04:47:52.347Z,11.99
2023-05-04T04:50:39.774Z,12.44
2023-05-04T04:53:23.742Z,12.46
2023-05-04T04:56:09.910Z,12.62
2023-05-04T04:58:53.758Z,12.86
2023-05-04T05:01:37.702Z,13.21
2023-05-04T05:04:22.561Z,13.40
2023-05-04T05:07:08.488Z,13.64
2023-05-04T05:09:52.303Z,13.47
2023-05-04T05:12:37.619Z,12.85
2023-05-04T05:15:21.511Z,11.90
2023-05-04T05:18:05.746Z,11.61
2023-05-04T05:20:49.774Z,11.65
2023-05-04T05:23:33.588Z,11.39
2023-05-04T05:26:17.474Z,11.28
2023-05-04T05:29:02.784Z,11.19
2023-05-04T05:31:46.823Z,10.92
2023-05-04T05:34:30.717Z,10.88
2023-05-04T05:37:14.690Z,11.13
2023-05-04T05:39:58.573Z,11.20
2023-05-04T05:42:42.921Z,11.20
2023-05-04T05:45:28.150Z,11.45
2023-05-04T05:48:12.084Z,11.51
2023-05-04T05:50:56.022Z,11.36
2023-05-04T05:53:39.955Z,11.91
2023-05-04T05:56:23.872Z,12.22
2023-05-04T05:59:07.798Z,12.36
2023-05-04T06:01:53.107Z,12.44
2023-05-04T06:04:37.138Z,12.33
2023-05-04T06:07:22.050Z,12.64
2023-05-04T06:10:06.819Z,12.72
2023-05-04T06:12:51.213Z,12.50
2023-05-04T06:15:36.718Z,12.48
2023-05-04T06:18:22.344Z,12.08
2023-05-04T06:21:06.315Z,12.04
2023-05-04T06:23:50.107Z,12.25
2023-05-04T06:26:34.154Z,12.41
2023-05-04T06:29:18.045Z,12.60
2023-05-04T06:32:03.403Z,12.76
2023-05-04T06:34:49.094Z,12.76
2023-05-04T06:37:33.184Z,12.89
2023-05-04T06:40:17.150Z,13.11
2023-05-04T06:43:01.383Z,12.92
2023-05-04T06:45:45.894Z,12.80
2023-05-04T06:48:29.987Z,12.89
2023-05-04T06:51:16.265Z,13.00
2023-05-04T06:54:01.985Z,13.04
2023-05-04T06:56:46.356Z,13.52
2023-05-04T06:59:30.417Z,13.69
2023-05-04T07:02:14.387Z,13.31
2023-05-04T07:04:59.136Z,13.15
2023-05-04T07:07:44.723Z,13.50
2023-05-04T07:10:28.997Z,14.24
2023-05-04T07:13:13.544Z,14.19
2023-05-04T07:15:57.664Z,15.73
2023-05-04T07:18:41.645Z,16.92
2023-05-04T07:21:28.927Z,16.65
2023-05-04T07:24:14.838Z,16.76
2023-05-04T07:26:58.785Z,15.42
2023-05-04T07:29:44.287Z,15.89
2023-05-04T07:32:28.239Z,16.45
2023-05-04T07:35:12.270Z,16.07
2023-05-04T07:37:56.337Z,17.00
2023-05-04T07:40:41.767Z,16.86
2023-05-04T07:43:26.156Z,15.76
2023-05-04T07:46:10.476Z,15.68
2023-05-04T07:48:54.918Z,15.23
2023-05-04T07:51:39.719Z,14.74
2023-05-04T07:54:24.150Z,15.51
2023-05-04T07:57:09.817Z,15.36
2023-05-04T07:59:56.281Z,15.07
2023-05-04T08:02:41.018Z,15.15
2023-05-04T08:05:25.780Z,15.07
2023-05-04T08:08:10.160Z,15.81
2023-05-04T08:11:01.982Z,16.20
2023-05-04T08:13:54.031Z,16.52
2023-05-04T08:16:39.925Z,16.74
2023-05-04T08:19:23.968Z,16.93
2023-05-04T08:22:09.114Z,16.94
2023-05-04T08:24:53.316Z,17.18
2023-05-04T08:27:37.679Z,17.72
2023-05-04T08:30:23.544Z,17.76
2023-05-04T08:33:08.734Z,18.19
2023-05-04T08:35:53.083Z,18.06
2023-05-04T08:38:37.734Z,18.33
2023-05-04T08:41:22.280Z,18.41
2023-05-04T08:44:08.643Z,18.45
2023-05-04T08:46:55.331Z,19.11
2023-05-04T08:49:39.757Z,19.04
2023-05-04T08:52:24.760Z,18.47
2023-05-04T08:55:12.866Z,18.81
2023-05-04T08:57:57.208Z,19.19
2023-05-04T09:00:44.330Z,19.08
2023-05-04T09:03:31.429Z,19.14
2023-05-04T09:06:16.260Z,18.79
2023-05-04T09:09:00.167Z,18.44
2023-05-04T09:11:45.471Z,18.41
2023-05-04T09:14:34.699Z,18.90
2023-05-04T09:17:25.783Z,18.38
2023-05-04T09:20:13.491Z,18.46
2023-05-04T09:23:07.438Z,18.45
2023-05-04T09:25:53.417Z,18.67
2023-05-04T09:28:39.796Z,18.45
2023-05-04T09:31:24.456Z,19.11
2023-05-04T09:34:11.180Z,18.92
2023-05-04T09:37:03.856Z,19.10
2023-05-04T09:39:52.797Z,19.30
2023-05-04T09:42:37.310Z,18.91
2023-05-04T09:45:21.700Z,19.24
2023-05-04T09:48:17.449Z,18.89
2023-05-04T09:51:06.286Z,18.68
2023-05-04T09:53:52.615Z,18.91
2023-05-04T09:56:42.922Z,18.93
2023-05-04T09:59:31.724Z,18.93
2023-05-04T10:02:22.615Z,19.40
2023-05-04T10:05:09.436Z,19.19
2023-05-04T10:07:53.972Z,18.84
2023-05-04T10:10:40.833Z,18.67
2023-05-04T10:13:25.121Z,18.45
2023-05-04T10:16:19.512Z,18.40
2023-05-04T10:19:33.053Z,18.87
2023-05-04T10:22:39.895Z,19.16
2023-05-04T10:25:44.457Z,19.43
2023-05-04T10:28:46.802Z,19.73
2023-05-04T10:31:39.537Z,19.71
2023-05-04T10:34:27.790Z,19.39
2023-05-04T10:37:18.332Z,19.74
2023-05-04T10:40:02.281Z,19.74
2023-05-04T10:42:47.498Z,19.73
2023-05-04T10:45:40.901Z,19.35
2023-05-04T10:48:34.867Z,19.12
2023-05-04T10:51:20.860Z,19.11
2023-05-04T10:54:05.535Z,19.45
2023-05-04T10:56:49.584Z,19.40
2023-05-04T10:59:36.014Z,19.37
2023-05-04T11:02:25.522Z,19.44
2023-05-04T11:05:16.098Z,19.25
2023-05-04T11:08:00.546Z,19.38
2023-05-04T11:10:45.070Z,19.44
2023-05-04T11:13:31.160Z,19.38
2023-05-04T11:16:15.914Z,19.24
2023-05-04T11:19:12.547Z,19.28
2023-05-04T11:21:56.744Z,19.16
2023-05-04T11:24:44.148Z,19.50
2023-05-04T11:27:29.552Z,19.60
2023-05-04T11:30:14.224Z,19.21
2023-05-04T11:33:00.446Z,19.25
2023-05-04T11:35:46.740Z,19.30
2023-05-04T11:38:31.392Z,19.18
2023-05-04T11:41:15.508Z,19.21
2023-05-04T11:44:02.156Z,19.50
2023-05-04T11:46:47.955Z,19.39
2023-05-04T11:49:32.600Z,19.29
2023-05-04T11:52:18.008Z,19.52
2023-05-04T11:55:03.144Z,19.72
2023-05-04T11:57:57.890Z,19.85
2023-05-04T12:00:44.152Z,19.82
2023-05-04T12:03:35.867Z,19.86
2023-05-04T12:06:33.717Z,19.87
2023-05-04T12:09:19.327Z,19.82
2023-05-04T12:12:03.297Z,18.79
2023-05-04T12:14:52.058Z,19.30
2023-05-04T12:17:43.661Z,19.53
2023-05-04T12:20:29.439Z,19.72
2023-05-04T12:23:13.928Z,19.80
2023-05-04T12:25:59.425Z,19.84
2023-05-04T12:28:44.461Z,20.03
2023-05-04T12:31:28.939Z,20.24
2023-05-04T12:34:12.855Z,20.61
2023-05-04T12:36:56.744Z,20.08
2023-05-04T12:39:40.726Z,19.70
2023-05-04T12:42:26.209Z,20.00
2023-05-04T12:45:11.278Z,19.36
2023-05-04T12:47:55.234Z,19.40
2023-05-04T12:50:39.205Z,19.51
2023-05-04T12:53:25.965Z,19.60
2023-05-04T12:56:10.044Z,19.39
2023-05-04T12:58:55.553Z,18.61
2023-05-04T13:01:41.642Z,19.15
2023-05-04T13:04:26.183Z,19.90
2023-05-04T13:07:10.147Z,19.57
2023-05-04T13:09:53.992Z,19.56
2023-05-04T13:12:38.678Z,19.70
2023-05-04T13:15:24.588Z,19.23
2023-05-04T13:18:08.619Z,18.31
2023-05-04T13:20:53.989Z,18.62
2023-05-04T13:23:38.143Z,19.47
2023-05-04T13:26:22.193Z,18.53
2023-05-04T13:29:06.376Z,18.96
2023-05-04T13:31:52.009Z,18.39
2023-05-04T13:34:35.963Z,18.84
2023-05-04T13:37:19.855Z,19.43
2023-05-04T13:40:04.103Z,19.28
2023-05-04T13:42:48.458Z,18.76
2023-05-04T13:45:32.850Z,18.81
2023-05-04T13:48:18.399Z,19.34
2023-05-04T13:51:04.066Z,17.93
2023-05-04T13:53:48.041Z,17.86
2023-05-04T13:56:32.022Z,18.09
2023-05-04T13:59:16.090Z,18.30
2023-05-04T14:02:00.359Z,17.87
2023-05-04T14:04:45.737Z,18.13
2023-05-04T14:07:30.108Z,18.64
2023-05-04T14:10:14.183Z,18.23
2023-05-04T14:12:58.441Z,18.21
2023-05-04T14:15:42.838Z,18.29
2023-05-04T14:18:28.138Z,18.29
2023-05-04T14:21:13.566Z,18.77
2023-05-04T14:23:57.626Z,18.59
2023-05-04T14:26:41.634Z,18.35
2023-05-04T14:29:25.702Z,18.20
2023-05-04T14:32:09.918Z,17.31
2023-05-04T14:34:54.082Z,18.33
2023-05-04T14:37:40.935Z,17.84
2023-05-04T14:40:25.145Z,17.34
2023-05-04T14:43:09.181Z,16.99
2023-05-04T14:45:53.481Z,16.71
2023-05-04T14:48:40.240Z,16.87
2023-05-04T14:51:26.494Z,17.14
2023-05-04T14:54:11.841Z,16.74
2023-05-04T14:56:55.913Z,16.46
2023-05-04T14:59:40.148Z,16.76
2023-05-04T15:02:26.999Z,16.41
2023-05-04T15:05:12.880Z,16.57
2023-05-04T15:07:56.856Z,16.80
2023-05-04T15:10:42.221Z,16.85
2023-05-04T15:13:26.474Z,17.43
2023-05-04T15:16:10.411Z,17.33
2023-05-04T15:18:54.586Z,17.14
2023-05-04T15:21:38.700Z,17.01
2023-05-04T15:24:22.708Z,17.00
2023-05-04T15:27:09.035Z,17.10
2023-05-04T15:29:53.027Z,16.41
2023-05-04T15:32:37.020Z,17.43
2023-05-04T15:35:21.311Z,16.67
2023-05-04T15:38:05.521Z,16.45
2023-05-04T15:40:49.528Z,16.88
2023-05-04T15:43:35.262Z,17.07
2023-05-04T15:46:19.628Z,16.80
2023-05-04T15:49:03.686Z,17.38
2023-05-04T15:51:47.801Z,15.91
2023-05-04T15:54:31.892Z,16.32
2023-05-04T15:57:16.343Z,16.87
2023-05-04T16:00:02.950Z,17.11
2023-05-04T16:02:52.241Z,17.72
2023-05-04T16:05:37.083Z,17.79
2023-05-04T16:08:23.453Z,17.70
2023-05-04T16:11:08.157Z,17.06
2023-05-04T16:13:52.318Z,16.83
2023-05-04T16:16:37.841Z,17.29
2023-05-04T16:19:22.785Z,17.73
2023-05-04T16:22:06.971Z,17.66
2023-05-04T16:24:51.287Z,17.46
2023-05-04T16:27:35.563Z,17.20
2023-05-04T16:30:19.950Z,17.63
2023-05-04T16:33:05.775Z,16.59
2023-05-04T16:35:49.964Z,16.02
2023-05-04T16:38:36.313Z,16.08
2023-05-04T16:41:21.980Z,16.08
2023-05-04T16:44:10.190Z,16.01
2023-05-04T16:46:54.865Z,16.30
2023-05-04T16:49:40.267Z,15.80
2023-05-04T16:52:24.379Z,15.97
2023-05-04T16:55:13.090Z,15.54
2023-05-04T16:57:58.034Z,15.39
2023-05-04T17:00:42.905Z,15.36
2023-05-04T17:03:27.492Z,15.15
2023-05-04T17:06:13.058Z,15.32
2023-05-04T17:09:01.141Z,15.17
2023-05-04T17:11:45.706Z,15.12
2023-05-04T17:14:29.880Z,15.25
2023-05-04T17:17:13.967Z,15.14
2023-05-04T17:20:01.716Z,14.90
2023-05-04T17:22:51.055Z,15.08
2023-05-04T17:25:37.102Z,14.71
2023-05-04T17:28:21.365Z,14.74
2023-05-04T17:31:05.450Z,14.65
2023-05-04T17:33:50.821Z,14.73
2023-05-04T17:36:39.911Z,14.54
2023-05-04T17:39:28.171Z,14.64
2023-05-04T17:42:12.789Z,14.48
2023-05-04T17:45:02.642Z,14.44
2023-05-04T17:47:55.272Z,14.30
2023-05-04T17:50:40.518Z,14.56
2023-05-04T17:53:25.136Z,14.52
2023-05-04T17:56:13.656Z,14.58
2023-05-04T17:58:57.908Z,14.44
2023-05-04T18:01:42.250Z,13.65
2023-05-04T18:04:26.540Z,13.21
2023-05-04T18:07:13.793Z,13.42
2023-05-04T18:09:58.090Z,13.38
2023-05-04T18:12:46.633Z,13.18
2023-05-04T18:15:33.951Z,13.54
2023-05-04T18:18:20.544Z,13.49
2023-05-04T18:21:08.601Z,13.33
2023-05-04T18:23:54.570Z,13.07
2023-05-04T18:26:38.911Z,12.88
2023-05-04T18:29:36.219Z,12.57
2023-05-04T18:32:20.261Z,12.65
2023-05-04T18:35:10.593Z,12.65
2023-05-04T18:37:54.763Z,12.54
2023-05-04T18:40:38.924Z,12.52
2023-05-04T18:43:24.019Z,12.66
2023-05-04T18:46:09.958Z,12.64
2023-05-04T18:49:09.388Z,12.54
2023-05-04T18:51:57.172Z,12.66
2023-05-04T18:54:45.565Z,12.94
2023-05-04T18:57:30.201Z,12.84
2023-05-04T19:00:15.397Z,12.29
2023-05-04T19:03:01.924Z,12.48
2023-05-04T19:05:54.700Z,12.53
2023-05-04T19:08:49.410Z,12.61
2023-05-04T19:11:34.652Z,12.41
2023-05-04T19:14:18.833Z,12.30
2023-05-04T19:17:04.753Z,11.96
2023-05-04T19:19:50.651Z,12.03
2023-05-04T19:22:34.989Z,11.49
2023-05-04T19:25:33.334Z,11.76
2023-05-04T19:28:21.101Z,11.91
2023-05-04T19:31:06.860Z,11.86
2023-05-04T19:33:52.595Z,12.05
2023-05-04T19:36:37.994Z,11.78
2023-05-04T19:39:25.245Z,11.66
2023-05-04T19:42:10.984Z,11.42
2023-05-04T19:44:55.208Z,11.61
2023-05-04T19:47:42.330Z,11.32
2023-05-04T19:50:26.651Z,10.98
2023-05-04T19:53:14.993Z,11.04
2023-05-04T19:56:00.909Z,11.35
2023-05-04T19:58:47.914Z,11.42
2023-05-04T20:01:31.971Z,10.93
2023-05-04T20:04:16.367Z,11.43
2023-05-04T20:07:00.584Z,11.28
2023-05-04T20:09:46.052Z,11.35
2023-05-04T20:12:32.734Z,11.71
2023-05-04T20:15:17.798Z,11.58
2023-05-04T20:18:01.944Z,11.28
2023-05-04T20:20:48.999Z,11.60
2023-05-04T20:23:41.036Z,11.76
2023-05-04T20:26:31.330Z,11.87
2023-05-04T20:29:15.399Z,11.72
2023-05-04T20:32:01.700Z,10.94
2023-05-04T20:34:51.565Z,11.11
2023-05-04T20:37:44.492Z,11.37
2023-05-04T20:40:42.423Z,11.27
2023-05-04T20:43:36.819Z,11.44
2023-05-04T20:46:23.763Z,11.55
2023-05-04T20:49:09.293Z,11.31
2023-05-04T20:51:53.342Z,11.48
2023-05-04T20:54:39.145Z,11.36
2023-05-04T20:57:28.369Z,11.19
2023-05-04T21:00:16.474Z,11.55
2023-05-04T21:03:00.691Z,11.69
2023-05-04T21:05:44.845Z,11.82
2023-05-04T21:08:28.983Z,11.85
2023-05-04T21:11:13.034Z,11.62
2023-05-04T21:13:57.232Z,11.47
2023-05-04T21:16:48.662Z,11.13
2023-05-04T21:19:33.074Z,10.96
2023-05-04T21:22:19.344Z,11.24
2023-05-04T21:25:04.322Z,10.83
2023-05-04T21:27:48.482Z,11.05
2023-05-04T21:30:32.601Z,11.22
2023-05-04T21:33:18.172Z,10.97
2023-05-04T21:36:12.277Z,10.40
2023-05-04T21:38:57.679Z,10.46
2023-05-04T21:41:41.830Z,10.55
2023-05-04T21:44:29.041Z,10.40
2023-05-04T21:47:17.195Z,10.24
2023-05-04T21:50:05.348Z,10.19
2023-05-04T21:52:49.626Z,10.24
2023-05-04T21:55:33.647Z,10.49
2023-05-04T21:58:17.971Z,10.42
2023-05-04T22:01:02.013Z,10.36
2023-05-04T22:03:48.104Z,10.45
2023-05-04T22:06:33.611Z,10.62
2023-05-04T22:09:17.805Z,10.67
2023-05-04T22:12:02.466Z,10.52
2023-05-04T22:14:46.575Z,9.98
2023-05-04T22:17:30.713Z,10.34
2023-05-04T22:20:15.027Z,10.55
2023-05-04T22:23:00.457Z,10.33
2023-05-04T22:25:44.518Z,10.29
2023-05-04T22:28:28.547Z,10.46
2023-05-04T22:31:12.895Z,10.56
2023-05-04T22:33:56.978Z,10.45
2023-05-04T22:36:43.827Z,10.22
2023-05-04T22:39:29.437Z,10.44
2023-05-04T22:42:13.411Z,10.64
2023-05-04T22:44:57.544Z,10.70
2023-05-04T22:47:41.600Z,11.09
2023-05-04T22:50:25.667Z,11.16
2023-05-04T22:53:09.809Z,10.86
2023-05-04T22:55:54.940Z,10.93
2023-05-04T22:58:38.726Z,11.00
2023-05-04T23:01:22.594Z,11.00
2023-05-04T23:04:07.871Z,11.15
2023-05-04T23:06:51.638Z,10.95
2023-05-04T23:09:42.669Z,11.24
2023-05-04T23:12:28.433Z,11.36
2023-05-04T23:15:12.702Z,11.48
2023-05-04T23:17:56.478Z,11.57
2023-05-04T23:20:40.334Z,11.67
2023-05-04T23:23:24.056Z,11.72
2023-05-04T23:26:07.750Z,11.67
2023-05-04T23:28:52.844Z,10.95
2023-05-04T23:31:36.619Z,11.62
2023-05-04T23:34:20.615Z,11.35
2023-05-04T23:37:04.381Z,11.15
2023-05-04T23:39:48.250Z,11.22
2023-05-04T23:42:31.882Z,11.13
2023-05-04T23:45:17.293Z,10.70
2023-05-04T23:48:01.365Z,10.52
2023-05-04T23:50:53.347Z,10.51
2023-05-04T23:53:37.100Z,10.65
2023-05-04T23:56:20.861Z,10.68
2023-05-04T23:59:05.022Z,10.59
